createdAt,value
2023-06-07T00:04:06.768Z,19.16
2023-06-07T00:14:07.318Z,19.21
2023-06-07T00:24:08.046Z,19.08
2023-06-07T00:34:08.649Z,19.10
2023-06-07T00:44:09.241Z,19.02
2023-06-07T00:54:09.770Z,18.90
2023-06-07T01:04:10.362Z,18.85
2023-06-07T01:14:10.925Z,18.82
2023-06-07T01:24:11.647Z,18.87
2023-06-07T01:34:12.227Z,18.72
2023-06-07T01:44:12.802Z,18.69
2023-06-07T01:54:13.358Z,18.57
2023-06-07T02:04:14.021Z,18.44
2023-06-07T02:14:14.605Z,18.42
2023-06-07T02:24:15.239Z,18.39
2023-06-07T02:34:15.711Z,18.48
2023-06-07T02:44:16.224Z,18.32
2023-06-07T02:54:16.686Z,18.39
2023-06-07T03:04:17.203Z,18.41
2023-06-07T03:14:17.692Z,18.41
2023-06-07T03:24:18.286Z,18.42
2023-06-07T03:34:18.770Z,18.41
2023-06-07T03:44:19.309Z,18.42
2023-06-07T03:54:19.797Z,18.44
2023-06-07T04:04:20.335Z,18.47
2023-06-07T04:14:20.798Z,18.66
2023-06-07T04:24:21.444Z,18.81
2023-06-07T04:34:21.945Z,18.87
2023-06-07T04:44:22.545Z,18.81
2023-06-07T04:54:22.983Z,18.95
2023-06-07T05:04:23.507Z,19.25
2023-06-07T05:14:23.994Z,19.46
2023-06-07T05:24:24.569Z,19.74
2023-06-07T05:34:25.036Z,19.91
2023-06-07T05:44:25.573Z,19.98
2023-06-07T05:54:33.071Z,20.18
2023-06-07T06:04:26.626Z,20.39
2023-06-07T06:14:27.108Z,20.82
2023-06-07T06:24:27.646Z,20.80
2023-06-07T06:34:28.129Z,21.04
2023-06-07T06:44:28.666Z,21.42
2023-06-07T06:54:29.156Z,21.49
2023-06-07T07:04:29.969Z,21.80
2023-06-07T07:14:30.429Z,22.39
2023-06-07T07:24:31.317Z,22.51
2023-06-07T07:34:32.360Z,22.43
2023-06-07T07:44:32.382Z,22.54
2023-06-07T07:54:32.866Z,22.61
2023-06-07T08:04:33.615Z,22.57
2023-06-07T08:14:34.089Z,22.60
2023-06-07T08:24:34.616Z,22.68
2023-06-07T08:34:35.106Z,22.77
2023-06-07T08:44:35.733Z,23.17
2023-06-07T08:54:36.168Z,23.53
2023-06-07T09:04:36.709Z,24.24
2023-06-07T09:14:37.206Z,25.17
2023-06-07T09:24:37.733Z,25.60
2023-06-07T09:34:38.257Z,25.91
2023-06-07T09:44:38.804Z,25.55
2023-06-07T09:54:39.238Z,25.35
2023-06-07T10:04:40.244Z,25.83
2023-06-07T10:14:40.261Z,26.18
2023-06-07T10:24:40.924Z,25.70
2023-06-07T10:34:41.400Z,26.47
2023-06-07T10:44:42.160Z,26.52
2023-06-07T10:54:42.723Z,27.02
2023-06-07T11:04:43.511Z,26.81
2023-06-07T11:14:43.641Z,27.12
2023-06-07T11:24:46.004Z,27.32
2023-06-07T11:34:44.771Z,27.59
2023-06-07T11:44:45.387Z,27.36
2023-06-07T11:54:52.845Z,27.10
2023-06-07T12:04:46.717Z,27.17
2023-06-07T12:14:47.206Z,26.88
2023-06-07T12:24:47.726Z,27.17
2023-06-07T12:34:48.227Z,27.90
2023-06-07T12:44:48.738Z,27.74
2023-06-07T12:54:49.206Z,27.85
2023-06-07T13:04:49.745Z,27.99
2023-06-07T13:14:50.201Z,27.82
2023-06-07T13:24:50.811Z,28.27
2023-06-07T13:34:51.293Z,28.11
2023-06-07T13:44:51.818Z,27.93
2023-06-07T13:54:52.307Z,28.19
2023-06-07T14:04:52.883Z,28.07
2023-06-07T14:14:53.368Z,28.29
2023-06-07T14:24:53.911Z,28.48
2023-06-07T14:34:54.387Z,28.36
2023-06-07T14:44:54.929Z,28.55
2023-06-07T14:54:55.411Z,28.49
2023-06-07T15:04:55.933Z,28.48
2023-06-07T15:14:56.424Z,28.31
2023-06-07T15:24:57.003Z,27.96
2023-06-07T15:34:57.533Z,28.15
2023-06-07T15:44:58.056Z,27.94
2023-06-07T15:54:58.557Z,27.85
2023-06-07T16:04:59.068Z,27.78
2023-06-07T16:14:59.537Z,27.81
2023-06-07T16:25:00.072Z,28.17
2023-06-07T16:35:00.555Z,27.88
2023-06-07T16:45:01.092Z,27.84
2023-06-07T16:55:01.599Z,27.82
2023-06-07T17:05:02.134Z,27.54
2023-06-07T17:15:02.596Z,27.39
2023-06-07T17:25:03.119Z,27.21
2023-06-07T17:35:03.612Z,27.04
2023-06-07T17:45:04.147Z,26.85
2023-06-07T17:55:11.627Z,26.70
2023-06-07T18:05:05.133Z,26.54
2023-06-07T18:15:05.614Z,26.28
2023-06-07T18:25:06.155Z,26.07
2023-06-07T18:35:07.087Z,25.80
2023-06-07T18:45:07.677Z,25.54
2023-06-07T18:55:08.213Z,25.23
2023-06-07T19:05:08.737Z,24.95
2023-06-07T19:15:09.072Z,24.69
2023-06-07T19:25:09.791Z,24.39
2023-06-07T19:35:10.229Z,24.09
2023-06-07T19:45:11.088Z,23.87
2023-06-07T19:55:11.623Z,23.79
2023-06-07T20:05:12.407Z,23.73
2023-06-07T20:15:13.196Z,23.57
2023-06-07T20:25:13.776Z,23.35
2023-06-07T20:35:14.319Z,23.16
2023-06-07T20:45:14.905Z,23.04
2023-06-07T20:55:15.443Z,22.91
2023-06-07T21:05:16.013Z,22.77
2023-06-07T21:15:16.582Z,22.65
2023-06-07T21:25:17.132Z,22.61
2023-06-07T21:35:17.651Z,22.37
2023-06-07T21:45:18.227Z,22.22
2023-06-07T21:55:18.756Z,22.05
2023-06-07T22:05:19.320Z,21.94
2023-06-07T22:15:19.873Z,21.82
2023-06-07T22:25:31.263Z,21.75
2023-06-07T22:35:21.918Z,21.72
2023-06-07T22:45:21.497Z,21.68
2023-06-07T22:55:22.035Z,21.50
2023-06-07T23:05:22.602Z,21.40
2023-06-07T23:15:23.125Z,21.31
2023-06-07T23:25:23.697Z,21.21
2023-06-07T23:35:24.237Z,21.10
2023-06-07T23:45:24.813Z,21.10
2023-06-07T23:55:32.340Z,21.09
